createdAt,value
2023-04-28T00:01:45.116Z,15.30
2023-04-28T00:04:12.161Z,15.30
2023-04-28T00:06:41.665Z,15.30
2023-04-28T00:09:12.061Z,15.20
2023-04-28T00:11:39.222Z,15.20
2023-04-28T00:14:06.369Z,15.20
2023-04-28T00:16:33.292Z,15.20
2023-04-28T00:19:01.176Z,15.20
2023-04-28T00:21:28.927Z,15.20
2023-04-28T00:23:56.100Z,15.20
2023-04-28T00:26:22.951Z,15.10
2023-04-28T00:28:49.988Z,15.10
2023-04-28T00:31:18.278Z,15.10
2023-04-28T00:33:45.544Z,15.00
2023-04-28T00:36:14.010Z,15.00
2023-04-28T00:38:41.352Z,15.00
2023-04-28T00:41:10.500Z,14.90
2023-04-28T00:43:47.792Z,14.90
2023-04-28T00:46:24.650Z,14.90
2023-04-28T00:48:51.557Z,14.90
2023-04-28T00:51:18.355Z,14.80
2023-04-28T00:53:45.453Z,14.90
2023-04-28T00:56:13.623Z,14.90
2023-04-28T00:58:42.761Z,14.90
2023-04-28T01:01:11.479Z,14.90
2023-04-28T01:03:40.450Z,14.90
2023-04-28T01:06:09.702Z,14.90
2023-04-28T01:08:38.144Z,14.80
2023-04-28T01:11:05.289Z,14.80
2023-04-28T01:13:34.457Z,14.80
2023-04-28T01:16:01.371Z,14.80
2023-04-28T01:18:28.676Z,14.70
2023-04-28T01:20:56.527Z,14.70
2023-04-28T01:23:24.406Z,14.70
2023-04-28T01:25:52.778Z,14.60
2023-04-28T01:28:19.658Z,14.60
2023-04-28T01:30:46.452Z,14.60
2023-04-28T01:33:13.488Z,14.60
2023-04-28T01:35:40.284Z,14.60
2023-04-28T01:38:07.615Z,14.70
2023-04-28T01:40:34.552Z,14.70
2023-04-28T01:43:02.021Z,14.70
2023-04-28T01:45:28.828Z,14.60
2023-04-28T01:47:55.695Z,14.70
2023-04-28T01:50:22.541Z,14.60
2023-04-28T01:52:49.297Z,14.60
2023-04-28T01:55:16.256Z,14.60
2023-04-28T01:57:43.411Z,14.60
2023-04-28T02:00:11.738Z,14.60
2023-04-28T02:02:38.658Z,14.60
2023-04-28T02:05:07.297Z,14.50
2023-04-28T02:07:34.096Z,14.60
2023-04-28T02:10:01.034Z,14.50
2023-04-28T02:12:27.827Z,14.50
2023-04-28T02:14:56.142Z,14.60
2023-04-28T02:17:22.988Z,14.50
2023-04-28T02:19:56.856Z,14.60
2023-04-28T02:22:24.457Z,14.50
2023-04-28T02:24:51.543Z,14.60
2023-04-28T02:27:18.671Z,14.50
2023-04-28T02:29:45.554Z,14.50
2023-04-28T02:32:12.444Z,14.50
2023-04-28T02:34:39.292Z,14.50
2023-04-28T02:37:06.272Z,14.40
2023-04-28T02:39:33.525Z,14.50
2023-04-28T02:42:00.417Z,14.50
2023-04-28T02:44:27.301Z,14.50
2023-04-28T02:46:54.176Z,14.40
2023-04-28T02:49:21.037Z,14.40
2023-04-28T02:51:47.823Z,14.30
2023-04-28T02:54:14.871Z,14.40
2023-04-28T02:56:43.344Z,14.40
2023-04-28T02:59:10.440Z,14.40
2023-04-28T03:01:37.302Z,14.40
2023-04-28T03:04:04.998Z,14.40
2023-04-28T03:06:32.948Z,14.40
2023-04-28T03:09:01.496Z,14.40
2023-04-28T03:11:28.283Z,14.40
2023-04-28T03:13:55.070Z,14.40
2023-04-28T03:16:21.891Z,14.40
2023-04-28T03:18:51.861Z,14.40
2023-04-28T03:21:18.709Z,14.30
2023-04-28T03:23:45.711Z,14.30
2023-04-28T03:26:12.702Z,14.40
2023-04-28T03:28:39.506Z,14.30
2023-04-28T03:31:06.452Z,14.30
2023-04-28T03:33:33.461Z,14.20
2023-04-28T03:36:00.660Z,14.20
2023-04-28T03:38:28.215Z,14.30
2023-04-28T03:40:55.027Z,14.20
2023-04-28T03:43:21.775Z,14.20
2023-04-28T03:45:49.907Z,14.20
2023-04-28T03:48:18.036Z,14.20
2023-04-28T03:50:45.675Z,14.20
2023-04-28T03:53:12.834Z,14.20
2023-04-28T03:55:39.694Z,14.30
2023-04-28T03:58:06.510Z,14.30
2023-04-28T04:00:33.865Z,14.30
2023-04-28T04:03:04.074Z,14.30
2023-04-28T04:05:31.368Z,14.30
2023-04-28T04:07:59.718Z,14.30
2023-04-28T04:10:26.758Z,14.30
2023-04-28T04:12:53.654Z,14.30
2023-04-28T04:15:20.554Z,14.30
2023-04-28T04:17:47.540Z,14.30
2023-04-28T04:20:15.598Z,14.30
2023-04-28T04:22:42.553Z,14.30
2023-04-28T04:25:09.475Z,14.20
2023-04-28T04:27:36.338Z,14.20
2023-04-28T04:30:03.298Z,14.20
2023-04-28T04:32:33.210Z,14.10
2023-04-28T04:35:00.019Z,14.10
2023-04-28T04:37:27.584Z,14.00
2023-04-28T04:39:56.250Z,14.00
2023-04-28T04:42:25.705Z,13.90
2023-04-28T04:44:53.063Z,13.80
2023-04-28T04:47:19.989Z,13.90
2023-04-28T04:49:53.399Z,13.80
2023-04-28T04:52:20.372Z,13.80
2023-04-28T04:54:48.515Z,13.80
2023-04-28T04:57:15.804Z,13.70
2023-04-28T04:59:45.756Z,13.80
2023-04-28T05:02:12.680Z,13.70
2023-04-28T05:04:42.083Z,13.70
2023-04-28T05:07:08.985Z,13.70
2023-04-28T05:09:35.864Z,13.70
2023-04-28T05:12:03.744Z,13.70
2023-04-28T05:14:30.608Z,13.80
2023-04-28T05:16:57.548Z,13.80
2023-04-28T05:19:25.352Z,13.80
2023-04-28T05:21:54.762Z,13.80
2023-04-28T05:24:24.382Z,13.80
2023-04-28T05:26:52.828Z,13.80
2023-04-28T05:29:23.217Z,13.80
2023-04-28T05:31:50.517Z,13.90
2023-04-28T05:34:17.673Z,13.90
2023-04-28T05:36:44.879Z,13.90
2023-04-28T05:39:11.756Z,13.90
2023-04-28T05:41:38.589Z,13.90
2023-04-28T05:44:06.107Z,13.90
2023-04-28T05:46:33.629Z,13.80
2023-04-28T05:49:00.795Z,13.80
2023-04-28T05:51:27.655Z,13.80
2023-04-28T05:53:54.498Z,13.70
2023-04-28T05:56:22.575Z,13.80
2023-04-28T05:58:50.870Z,13.70
2023-04-28T06:01:19.969Z,13.80
2023-04-28T06:03:47.128Z,13.80
2023-04-28T06:06:14.192Z,13.80
2023-04-28T06:08:41.362Z,13.70
2023-04-28T06:11:08.228Z,13.70
2023-04-28T06:13:35.088Z,13.60
2023-04-28T06:16:02.044Z,13.60
2023-04-28T06:18:35.451Z,13.60
2023-04-28T06:21:02.451Z,13.60
2023-04-28T06:23:30.049Z,13.50
2023-04-28T06:25:57.919Z,13.60
2023-04-28T06:28:24.817Z,13.50
2023-04-28T06:30:54.255Z,13.60
2023-04-28T06:33:21.102Z,13.70
2023-04-28T06:35:49.755Z,13.70
2023-04-28T06:38:16.728Z,13.80
2023-04-28T06:40:45.413Z,13.90
2023-04-28T06:43:12.981Z,13.90
2023-04-28T06:45:39.934Z,13.80
2023-04-28T06:48:08.343Z,13.90
2023-04-28T06:50:35.203Z,13.90
2023-04-28T06:53:02.903Z,14.00
2023-04-28T06:55:29.818Z,14.10
2023-04-28T06:57:56.684Z,14.10
2023-04-28T07:00:23.522Z,14.20
2023-04-28T07:02:50.465Z,14.40
2023-04-28T07:05:17.572Z,14.60
2023-04-28T07:07:45.889Z,14.60
2023-04-28T07:10:13.492Z,14.60
2023-04-28T07:12:40.335Z,14.70
2023-04-28T07:15:10.074Z,14.70
2023-04-28T07:17:37.537Z,14.70
2023-04-28T07:20:05.506Z,14.70
2023-04-28T07:22:32.876Z,14.90
2023-04-28T07:24:59.777Z,15.10
2023-04-28T07:27:26.841Z,15.30
2023-04-28T07:29:53.902Z,15.60
2023-04-28T07:32:20.975Z,15.50
2023-04-28T07:34:50.902Z,15.60
2023-04-28T07:37:18.808Z,15.60
2023-04-28T07:39:46.106Z,15.60
2023-04-28T07:42:13.066Z,15.70
2023-04-28T07:44:39.961Z,15.70
2023-04-28T07:47:06.841Z,15.70
2023-04-28T07:49:35.152Z,15.70
2023-04-28T07:52:04.025Z,15.80
2023-04-28T07:54:31.180Z,15.80
2023-04-28T07:57:00.932Z,15.80
2023-04-28T07:59:28.050Z,15.90
2023-04-28T08:01:54.910Z,15.90
2023-04-28T08:04:22.143Z,15.90
2023-04-28T08:06:49.578Z,15.90
2023-04-28T08:09:16.553Z,16.00
2023-04-28T08:11:43.462Z,16.00
2023-04-28T08:14:10.312Z,16.00
2023-04-28T08:16:40.467Z,16.00
2023-04-28T08:19:08.982Z,16.00
2023-04-28T08:21:36.669Z,16.10
2023-04-28T08:24:03.709Z,16.10
2023-04-28T08:26:31.460Z,16.20
2023-04-28T08:28:58.489Z,16.20
2023-04-28T08:31:25.611Z,16.30
2023-04-28T08:33:53.188Z,16.30
2023-04-28T08:36:21.539Z,16.40
2023-04-28T08:38:48.591Z,16.40
2023-04-28T08:41:20.044Z,16.40
2023-04-28T08:43:47.127Z,16.50
2023-04-28T08:46:15.505Z,16.50
2023-04-28T08:48:45.911Z,16.50
2023-04-28T08:51:19.068Z,16.50
2023-04-28T08:56:27.869Z,16.50
2023-04-28T08:58:56.815Z,16.60
2023-04-28T09:01:25.356Z,16.50
2023-04-28T09:03:55.250Z,16.60
2023-04-28T09:06:23.288Z,16.60
2023-04-28T09:08:50.237Z,16.60
2023-04-28T09:11:17.174Z,16.60
2023-04-28T09:13:44.209Z,16.70
2023-04-28T09:16:11.987Z,16.80
2023-04-28T09:18:39.056Z,16.90
2023-04-28T09:21:10.551Z,17.00
2023-04-28T09:23:49.486Z,17.10
2023-04-28T09:26:16.686Z,17.20
2023-04-28T09:28:43.742Z,17.20
2023-04-28T09:31:25.389Z,17.20
2023-04-28T09:33:59.745Z,17.20
2023-04-28T09:36:31.291Z,17.20
2023-04-28T09:38:59.694Z,17.20
2023-04-28T09:41:40.729Z,17.20
2023-04-28T09:44:19.577Z,17.10
2023-04-28T09:46:48.808Z,17.10
2023-04-28T09:49:17.206Z,17.10
2023-04-28T09:58:24.963Z,17.10
2023-04-28T10:00:52.920Z,17.10
2023-04-28T10:03:29.133Z,17.20
2023-04-28T10:05:58.543Z,17.10
2023-04-28T10:08:28.508Z,17.20
2023-04-28T10:10:57.125Z,17.40
2023-04-28T10:13:24.760Z,17.50
2023-04-28T10:15:55.524Z,17.50
2023-04-28T10:18:26.873Z,17.60
2023-04-28T10:20:58.593Z,17.80
2023-04-28T10:23:55.557Z,18.00
2023-04-28T10:26:27.591Z,18.20
2023-04-28T10:28:54.521Z,18.30
2023-04-28T10:31:22.868Z,18.40
2023-04-28T10:33:50.356Z,18.50
2023-04-28T10:36:50.002Z,18.50
2023-04-28T10:39:16.969Z,18.60
2023-04-28T10:41:51.050Z,18.60
2023-04-28T10:44:44.243Z,18.70
2023-04-28T10:47:11.766Z,18.70
2023-04-28T10:50:06.944Z,18.70
2023-04-28T10:52:35.033Z,18.70
2023-04-28T10:55:33.038Z,18.70
2023-04-28T10:58:20.345Z,18.70
2023-04-28T11:00:48.327Z,18.70
2023-04-28T11:03:43.471Z,18.80
2023-04-28T11:06:29.983Z,18.90
2023-04-28T11:08:58.182Z,18.80
2023-04-28T11:11:39.409Z,18.90
2023-04-28T11:14:18.784Z,18.90
2023-04-28T11:16:54.794Z,18.90
2023-04-28T11:19:27.076Z,19.00
2023-04-28T11:21:59.813Z,19.20
2023-04-28T11:24:29.152Z,19.30
2023-04-28T11:26:56.916Z,19.30
2023-04-28T11:29:37.087Z,19.40
2023-04-28T11:32:05.671Z,19.40
2023-04-28T11:34:33.099Z,19.30
2023-04-28T11:37:00.406Z,19.30
2023-04-28T11:39:32.751Z,19.20
2023-04-28T11:42:03.336Z,19.10
2023-04-28T11:44:31.851Z,19.10
2023-04-28T11:47:02.116Z,19.10
2023-04-28T11:49:42.616Z,19.00
2023-04-28T11:52:10.716Z,19.00
2023-04-28T11:54:38.817Z,19.00
2023-04-28T11:57:06.985Z,19.00
2023-04-28T11:59:35.770Z,19.10
2023-04-28T12:02:07.946Z,19.10
2023-04-28T12:04:39.937Z,19.20
2023-04-28T12:07:18.104Z,19.20
2023-04-28T12:09:46.362Z,19.30
2023-04-28T12:12:39.972Z,19.40
2023-04-28T12:15:12.828Z,19.50
2023-04-28T12:17:41.859Z,19.50
2023-04-28T12:20:12.055Z,19.60
2023-04-28T12:22:51.045Z,19.70
2023-04-28T12:25:24.787Z,19.70
2023-04-28T12:28:05.132Z,19.80
2023-04-28T12:33:53.928Z,19.80
2023-04-28T12:36:20.912Z,19.90
2023-04-28T12:41:17.337Z,20.00
2023-04-28T12:43:44.880Z,20.00
2023-04-28T12:46:14.900Z,20.10
2023-04-28T12:48:41.761Z,20.10
2023-04-28T12:51:10.301Z,20.10
2023-04-28T12:53:37.171Z,20.10
2023-04-28T12:56:04.462Z,20.10
2023-04-28T12:58:31.435Z,20.10
2023-04-28T13:00:58.270Z,20.10
2023-04-28T13:03:25.273Z,20.20
2023-04-28T13:05:52.260Z,20.30
2023-04-28T13:08:19.053Z,20.20
2023-04-28T13:10:46.068Z,20.20
2023-04-28T13:13:12.844Z,20.20
2023-04-28T13:15:39.826Z,20.20
2023-04-28T13:18:18.750Z,20.10
2023-04-28T13:20:45.594Z,20.10
2023-04-28T13:23:12.393Z,20.10
2023-04-28T13:25:39.232Z,20.10
2023-04-28T13:28:06.089Z,20.10
2023-04-28T13:30:33.517Z,20.20
2023-04-28T13:33:00.438Z,20.20
2023-04-28T13:35:27.636Z,20.40
2023-04-28T13:40:23.457Z,20.60
2023-04-28T13:42:50.278Z,20.60
2023-04-28T13:45:19.552Z,20.60
2023-04-28T13:47:48.540Z,20.60
2023-04-28T13:50:16.709Z,20.60
2023-04-28T13:52:45.094Z,20.60
2023-04-28T13:55:12.289Z,20.60
2023-04-28T13:57:39.354Z,20.60
2023-04-28T14:00:07.145Z,20.60
2023-04-28T14:02:34.147Z,20.70
2023-04-28T14:05:01.369Z,20.60
2023-04-28T14:07:29.000Z,20.60
2023-04-28T14:09:55.850Z,20.60
2023-04-28T14:12:22.721Z,20.60
2023-04-28T14:14:49.790Z,20.60
2023-04-28T14:17:16.851Z,20.60
2023-04-28T14:19:45.049Z,20.60
2023-04-28T14:22:12.589Z,20.60
2023-04-28T14:24:39.419Z,20.60
2023-04-28T14:27:08.932Z,20.60
2023-04-28T14:29:36.453Z,20.70
2023-04-28T14:32:03.389Z,20.80
2023-04-28T14:34:30.454Z,20.80
2023-04-28T14:36:58.707Z,20.80
2023-04-28T14:39:25.644Z,20.80
2023-04-28T14:42:01.999Z,20.80
2023-04-28T14:44:28.844Z,20.80
2023-04-28T14:46:56.408Z,20.80
2023-04-28T14:49:23.938Z,20.80
2023-04-28T14:51:50.883Z,20.80
2023-04-28T14:54:17.966Z,20.80
2023-04-28T14:56:44.806Z,20.70
2023-04-28T14:59:12.100Z,20.70
2023-04-28T15:01:39.391Z,20.70
2023-04-28T15:04:07.686Z,20.70
2023-04-28T15:06:36.084Z,20.70
2023-04-28T15:09:02.988Z,20.70
2023-04-28T15:11:31.227Z,20.80
2023-04-28T15:13:58.432Z,20.80
2023-04-28T15:16:25.821Z,20.80
2023-04-28T15:18:52.700Z,20.80
2023-04-28T15:21:19.564Z,20.80
2023-04-28T15:23:46.643Z,20.80
2023-04-28T15:26:15.546Z,20.80
2023-04-28T15:28:42.850Z,20.80
2023-04-28T15:31:09.752Z,20.80
2023-04-28T15:33:36.684Z,20.80
2023-04-28T15:36:03.584Z,20.80
2023-04-28T15:38:31.803Z,20.80
2023-04-28T15:40:58.713Z,20.80
2023-04-28T15:43:27.617Z,20.70
2023-04-28T15:45:54.578Z,20.70
2023-04-28T15:48:23.319Z,20.80
2023-04-28T15:50:50.328Z,20.80
2023-04-28T15:53:17.564Z,20.80
2023-04-28T15:55:46.035Z,20.70
2023-04-28T15:58:12.931Z,20.70
2023-04-28T16:00:41.495Z,20.70
2023-04-28T16:03:08.716Z,20.70
2023-04-28T16:05:36.689Z,20.70
2023-04-28T16:08:05.734Z,20.60
2023-04-28T16:10:32.678Z,20.50
2023-04-28T16:13:00.104Z,20.60
2023-04-28T16:15:28.498Z,20.60
2023-04-28T16:17:56.997Z,20.40
2023-04-28T16:20:25.344Z,20.50
2023-04-28T16:22:52.500Z,20.40
2023-04-28T16:25:19.425Z,20.50
2023-04-28T16:27:46.313Z,20.40
2023-04-28T16:30:13.324Z,20.40
2023-04-28T16:32:41.581Z,20.40
2023-04-28T16:35:15.300Z,20.30
2023-04-28T16:37:43.388Z,20.30
2023-04-28T16:40:11.130Z,20.30
2023-04-28T16:42:38.563Z,20.20
2023-04-28T16:45:05.848Z,20.20
2023-04-28T16:47:35.483Z,20.10
2023-04-28T16:52:31.292Z,20.00
2023-04-28T16:54:58.980Z,20.00
2023-04-28T16:57:25.832Z,19.90
2023-04-28T16:59:53.285Z,19.80
2023-04-28T17:02:20.417Z,19.90
2023-04-28T17:04:47.374Z,19.90
2023-04-28T17:07:14.269Z,19.80
2023-04-28T17:09:41.144Z,19.80
2023-04-28T17:12:08.337Z,19.70
2023-04-28T17:14:38.821Z,19.70
2023-04-28T17:17:05.914Z,19.60
2023-04-28T17:19:35.849Z,19.60
2023-04-28T17:22:03.446Z,19.60
2023-04-28T17:24:31.308Z,19.50
2023-04-28T17:26:58.110Z,19.40
2023-04-28T17:29:24.932Z,19.40
2023-04-28T17:31:52.167Z,19.40
2023-04-28T17:34:20.440Z,19.30
2023-04-28T17:36:47.353Z,19.30
2023-04-28T17:39:16.147Z,19.30
2023-04-28T17:41:43.732Z,19.30
2023-04-28T17:44:10.533Z,19.30
2023-04-28T17:46:38.674Z,19.20
2023-04-28T17:49:05.622Z,19.20
2023-04-28T17:51:32.795Z,19.20
2023-04-28T17:53:59.606Z,19.20
2023-04-28T17:56:27.168Z,19.20
2023-04-28T17:58:55.003Z,19.20
2023-04-28T18:01:21.835Z,19.20
2023-04-28T18:03:49.857Z,19.20
2023-04-28T18:06:16.831Z,19.20
2023-04-28T18:08:44.786Z,19.10
2023-04-28T18:11:11.727Z,19.10
2023-04-28T18:13:38.565Z,19.00
2023-04-28T18:16:06.660Z,18.90
2023-04-28T18:18:35.647Z,18.90
2023-04-28T18:21:02.878Z,18.80
2023-04-28T18:23:30.829Z,18.80
2023-04-28T18:25:57.677Z,18.80
2023-04-28T18:28:24.834Z,18.80
2023-04-28T18:30:53.035Z,18.80
2023-04-28T18:33:22.988Z,18.80
2023-04-28T18:35:59.016Z,18.80
2023-04-28T18:38:28.825Z,18.80
2023-04-28T18:40:56.216Z,18.80
2023-04-28T18:43:23.890Z,18.80
2023-04-28T18:45:50.866Z,18.80
2023-04-28T18:48:18.003Z,18.80
2023-04-28T18:50:45.228Z,18.80
2023-04-28T18:53:12.161Z,18.70
2023-04-28T18:55:39.120Z,18.70
2023-04-28T18:58:06.094Z,18.70
2023-04-28T19:00:38.426Z,18.70
2023-04-28T19:11:48.372Z,18.60
2023-04-28T19:14:15.329Z,18.60
2023-04-28T19:16:42.761Z,18.60
2023-04-28T19:19:09.966Z,18.60
2023-04-28T19:21:42.225Z,18.60
2023-04-28T19:24:09.397Z,18.60
2023-04-28T19:26:36.235Z,18.60
2023-04-28T19:29:03.058Z,18.60
2023-04-28T19:31:29.942Z,18.60
2023-04-28T19:33:59.031Z,18.60
2023-04-28T19:36:25.961Z,18.60
2023-04-28T19:38:53.353Z,18.50
2023-04-28T19:41:21.005Z,18.60
2023-04-28T19:43:48.306Z,18.60
2023-04-28T19:46:16.485Z,18.60
2023-04-28T19:48:46.795Z,18.60
2023-04-28T19:51:15.952Z,18.60
2023-04-28T19:53:46.474Z,18.50
2023-04-28T19:56:13.904Z,18.50
2023-04-28T19:58:43.597Z,18.50
2023-04-28T20:01:10.534Z,18.50
2023-04-28T20:03:37.619Z,18.60
2023-04-28T20:06:04.688Z,18.40
2023-04-28T20:08:31.525Z,18.40
2023-04-28T20:10:59.027Z,18.50
2023-04-28T20:13:27.916Z,18.40
2023-04-28T20:15:57.601Z,18.40
2023-04-28T20:18:26.052Z,18.40
2023-04-28T20:20:54.228Z,18.40
2023-04-28T20:23:21.197Z,18.40
2023-04-28T20:25:48.628Z,18.40
2023-04-28T20:28:16.165Z,18.40
2023-04-28T20:30:43.437Z,18.40
2023-04-28T20:33:10.726Z,18.40
2023-04-28T20:35:38.146Z,18.30
2023-04-28T20:38:05.120Z,18.30
2023-04-28T20:40:31.933Z,18.30
2023-04-28T20:43:01.744Z,18.30
2023-04-28T20:45:28.601Z,18.30
2023-04-28T20:47:56.607Z,18.20
2023-04-28T20:50:23.965Z,18.20
2023-04-28T20:52:50.940Z,18.20
2023-04-28T20:55:17.851Z,18.10
2023-04-28T20:57:44.803Z,18.00
2023-04-28T21:00:14.546Z,17.90
2023-04-28T21:02:42.649Z,17.90
2023-04-28T21:05:10.230Z,17.80
2023-04-28T21:07:37.109Z,17.80
2023-04-28T21:10:04.361Z,17.70
2023-04-28T21:12:31.327Z,17.70
2023-04-28T21:14:59.725Z,17.70
2023-04-28T21:17:26.617Z,17.60
2023-04-28T21:19:55.422Z,17.60
2023-04-28T21:22:22.892Z,17.60
2023-04-28T21:24:49.730Z,17.50
2023-04-28T21:27:16.594Z,17.60
2023-04-28T21:29:43.645Z,17.60
2023-04-28T21:32:12.095Z,17.60
2023-04-28T21:34:39.095Z,17.60
2023-04-28T21:37:06.013Z,17.60
2023-04-28T21:39:32.985Z,17.60
2023-04-28T21:42:00.191Z,17.60
2023-04-28T21:44:26.971Z,17.60
2023-04-28T21:46:53.851Z,17.60
2023-04-28T21:49:20.701Z,17.60
2023-04-28T21:51:47.619Z,17.60
2023-04-28T21:54:14.992Z,17.60
2023-04-28T21:56:42.104Z,17.50
2023-04-28T21:59:09.146Z,17.50
2023-04-28T22:01:36.066Z,17.50
2023-04-28T22:04:04.442Z,17.50
2023-04-28T22:06:31.929Z,17.50
2023-04-28T22:08:58.824Z,17.50
2023-04-28T22:11:25.655Z,17.50
2023-04-28T22:13:52.555Z,17.50
2023-04-28T22:16:19.648Z,17.50
2023-04-28T22:18:46.698Z,17.50
2023-04-28T22:21:14.477Z,17.50
2023-04-28T22:23:41.509Z,17.40
2023-04-28T22:26:08.344Z,17.40
2023-04-28T22:28:35.465Z,17.40
2023-04-28T22:31:02.349Z,17.40
2023-04-28T22:33:30.698Z,17.30
2023-04-28T22:35:57.778Z,17.30
2023-04-28T22:38:24.656Z,17.30
2023-04-28T22:40:51.583Z,17.30
2023-04-28T22:43:19.379Z,17.30
2023-04-28T22:45:46.425Z,17.30
2023-04-28T22:48:15.096Z,17.30
2023-04-28T22:50:41.980Z,17.30
2023-04-28T22:53:09.559Z,17.30
2023-04-28T22:55:36.462Z,17.20
2023-04-28T22:58:03.288Z,17.20
2023-04-28T23:00:30.183Z,17.10
2023-04-28T23:02:57.198Z,17.10
2023-04-28T23:05:24.076Z,17.10
2023-04-28T23:07:50.913Z,17.00
2023-04-28T23:10:19.764Z,17.00
2023-04-28T23:12:46.586Z,16.90
2023-04-28T23:15:16.212Z,16.90
2023-04-28T23:17:43.901Z,16.90
2023-04-28T23:20:11.460Z,16.80
2023-04-28T23:22:38.580Z,16.80
2023-04-28T23:25:06.220Z,16.80
2023-04-28T23:27:33.108Z,16.70
2023-04-28T23:29:59.917Z,16.70
2023-04-28T23:32:26.982Z,16.70
2023-04-28T23:34:53.853Z,16.70
2023-04-28T23:37:20.700Z,16.70
2023-04-28T23:39:47.642Z,16.80
2023-04-28T23:42:14.441Z,16.70
2023-04-28T23:44:41.280Z,16.70
2023-04-28T23:47:08.214Z,16.60
2023-04-28T23:49:35.048Z,16.60
2023-04-28T23:52:01.931Z,16.50
2023-04-28T23:54:28.829Z,16.50
2023-04-28T23:56:55.737Z,16.50
2023-04-28T23:59:22.618Z,16.40
